createdAt,value
2022-12-03T00:02:15.575Z,6.20
2022-12-03T00:05:20.346Z,6.20
2022-12-03T00:08:45.726Z,6.30
2022-12-03T00:18:20.811Z,6.20
2022-12-03T00:21:27.526Z,6.30
2022-12-03T00:24:46.811Z,6.30
2022-12-03T00:27:57.636Z,6.30
2022-12-03T00:31:27.461Z,6.50
2022-12-03T00:37:57.800Z,6.30
2022-12-03T00:41:17.421Z,6.40
2022-12-03T00:44:19.110Z,6.40
2022-12-03T00:47:20.493Z,6.40
2022-12-03T00:50:22.286Z,6.30
2022-12-03T00:53:25.781Z,6.20
2022-12-03T00:56:23.578Z,6.30
2022-12-03T00:59:30.618Z,6.20
2022-12-03T01:02:34.227Z,6.20
2022-12-03T01:05:40.289Z,6.30
2022-12-03T01:08:48.352Z,6.30
2022-12-03T01:11:59.689Z,6.30
2022-12-03T01:14:58.063Z,6.30
2022-12-03T01:18:06.502Z,6.20
2022-12-03T01:21:10.048Z,6.30
2022-12-03T01:23:58.684Z,6.30
2022-12-03T01:26:47.151Z,6.20
2022-12-03T01:29:35.641Z,6.30
2022-12-03T01:32:23.056Z,6.30
2022-12-03T01:35:12.892Z,6.20
2022-12-03T01:38:01.360Z,6.20
2022-12-03T01:40:50.245Z,6.10
2022-12-03T01:43:44.364Z,6.00
2022-12-03T01:49:39.349Z,6.00
2022-12-03T01:52:32.465Z,6.10
2022-12-03T01:55:22.484Z,6.10
2022-12-03T01:58:11.604Z,6.00
2022-12-03T02:01:01.118Z,6.00
2022-12-03T02:03:49.364Z,6.30
2022-12-03T02:06:40.889Z,6.20
2022-12-03T02:09:30.885Z,6.30
2022-12-03T02:12:21.444Z,6.30
2022-12-03T02:15:13.510Z,6.20
2022-12-03T02:18:17.222Z,6.20
2022-12-03T02:21:09.692Z,6.20
2022-12-03T02:24:02.954Z,6.20
2022-12-03T02:27:22.429Z,6.40
2022-12-03T02:30:51.800Z,6.20
2022-12-03T02:34:04.617Z,6.30
2022-12-03T02:37:03.754Z,6.30
2022-12-03T02:39:59.833Z,6.30
2022-12-03T02:42:49.179Z,6.30
2022-12-03T02:45:40.128Z,6.30
2022-12-03T02:48:30.024Z,6.30
2022-12-03T02:51:19.157Z,6.20
2022-12-03T02:54:10.425Z,6.30
2022-12-03T02:57:00.425Z,6.10
2022-12-03T03:00:14.339Z,6.00
2022-12-03T03:03:06.837Z,6.20
2022-12-03T03:05:56.988Z,6.00
2022-12-03T03:08:46.490Z,6.00
2022-12-03T03:11:35.020Z,5.90
2022-12-03T03:14:25.349Z,5.90
2022-12-03T03:17:15.274Z,6.10
2022-12-03T03:20:08.319Z,6.00
2022-12-03T03:23:07.128Z,6.00
2022-12-03T03:26:06.017Z,6.20
2022-12-03T03:28:55.897Z,6.10
2022-12-03T03:31:53.191Z,6.10
2022-12-03T03:34:56.651Z,6.10
2022-12-03T03:37:46.113Z,6.00
2022-12-03T03:40:37.661Z,6.00
2022-12-03T03:43:29.398Z,6.10
2022-12-03T03:46:21.492Z,6.10
2022-12-03T03:49:13.901Z,6.30
2022-12-03T03:52:14.328Z,6.10
2022-12-03T03:55:07.375Z,6.10
2022-12-03T03:57:58.560Z,6.10
2022-12-03T04:00:53.225Z,6.20
2022-12-03T04:03:47.258Z,6.00
2022-12-03T04:06:39.382Z,6.00
2022-12-03T04:09:29.892Z,6.10
2022-12-03T04:12:38.464Z,6.10
2022-12-03T04:15:28.012Z,6.00
2022-12-03T04:18:34.036Z,6.10
2022-12-03T04:21:40.512Z,6.00
2022-12-03T04:24:30.442Z,6.00
2022-12-03T04:27:39.308Z,6.00
2022-12-03T04:30:34.568Z,6.00
2022-12-03T04:33:52.452Z,5.90
2022-12-03T04:37:17.052Z,6.10
2022-12-03T04:40:54.693Z,6.20
2022-12-03T04:44:27.889Z,6.10
2022-12-03T04:47:45.349Z,6.20
2022-12-03T04:50:33.730Z,6.00
2022-12-03T04:53:22.303Z,6.10
2022-12-03T04:56:11.803Z,6.20
2022-12-03T04:59:00.258Z,5.90
2022-12-03T05:01:49.912Z,6.00
2022-12-03T05:04:38.454Z,6.10
2022-12-03T05:07:26.787Z,6.20
2022-12-03T05:10:15.051Z,6.10
2022-12-03T05:13:03.529Z,6.10
2022-12-03T05:15:52.482Z,6.10
2022-12-03T05:18:42.455Z,6.10
2022-12-03T05:21:30.863Z,6.00
2022-12-03T05:24:19.362Z,5.90
2022-12-03T05:27:07.808Z,5.90
2022-12-03T05:29:56.368Z,6.20
2022-12-03T05:32:56.487Z,6.00
2022-12-03T05:36:22.222Z,6.00
2022-12-03T05:39:13.928Z,6.10
2022-12-03T05:42:22.104Z,5.90
2022-12-03T05:45:17.758Z,5.90
2022-12-03T05:48:10.593Z,5.90
2022-12-03T05:50:59.608Z,5.90
2022-12-03T05:53:50.686Z,6.10
2022-12-03T05:56:39.441Z,6.00
2022-12-03T05:59:27.848Z,6.00
2022-12-03T06:02:16.508Z,6.10
2022-12-03T06:05:05.134Z,5.90
2022-12-03T06:07:56.441Z,5.80
2022-12-03T06:10:49.891Z,5.80
2022-12-03T06:13:38.978Z,5.70
2022-12-03T06:16:27.864Z,5.60
2022-12-03T06:19:16.719Z,5.60
2022-12-03T06:22:06.087Z,5.50
2022-12-03T06:24:59.657Z,5.70
2022-12-03T06:27:54.575Z,5.80
2022-12-03T06:30:43.839Z,5.80
2022-12-03T06:33:35.320Z,5.80
2022-12-03T06:36:24.659Z,5.90
2022-12-03T06:39:15.520Z,5.80
2022-12-03T06:42:04.251Z,5.80
2022-12-03T06:44:54.312Z,5.80
2022-12-03T06:47:42.989Z,5.80
2022-12-03T06:50:31.670Z,5.90
2022-12-03T06:53:21.744Z,5.60
2022-12-03T06:56:10.274Z,5.70
2022-12-03T06:58:59.008Z,5.60
2022-12-03T07:01:51.721Z,5.70
2022-12-03T07:04:46.251Z,5.60
2022-12-03T07:07:35.126Z,5.60
2022-12-03T07:10:24.033Z,5.80
2022-12-03T07:13:12.875Z,5.80
2022-12-03T07:16:04.511Z,5.70
2022-12-03T07:19:27.600Z,5.70
2022-12-03T07:22:22.602Z,5.60
2022-12-03T07:28:44.102Z,5.60
2022-12-03T07:31:32.915Z,5.60
2022-12-03T07:34:24.181Z,5.50
2022-12-03T07:37:12.745Z,5.70
2022-12-03T07:40:02.560Z,5.50
2022-12-03T07:42:51.088Z,5.40
2022-12-03T07:45:41.241Z,5.40
2022-12-03T07:48:29.849Z,5.40
2022-12-03T07:51:21.682Z,5.40
2022-12-03T07:54:12.991Z,5.40
2022-12-03T07:57:02.138Z,5.40
2022-12-03T07:59:50.755Z,5.20
2022-12-03T08:02:39.726Z,5.20
2022-12-03T08:05:32.771Z,5.20
2022-12-03T08:08:47.962Z,5.20
2022-12-03T08:12:01.352Z,5.10
2022-12-03T08:14:53.599Z,5.30
2022-12-03T08:17:44.758Z,5.20
2022-12-03T08:20:39.828Z,5.20
2022-12-03T08:23:32.930Z,5.30
2022-12-03T08:26:23.789Z,5.30
2022-12-03T08:29:12.975Z,5.20
2022-12-03T08:32:05.675Z,5.50
2022-12-03T08:34:59.419Z,5.50
2022-12-03T08:37:57.443Z,5.40
2022-12-03T08:40:55.486Z,5.40
2022-12-03T08:43:49.764Z,5.60
2022-12-03T08:47:09.386Z,5.50
2022-12-03T08:50:04.496Z,5.40
2022-12-03T08:53:02.467Z,5.70
2022-12-03T08:55:57.690Z,5.60
2022-12-03T08:59:15.359Z,5.50
2022-12-03T09:02:25.398Z,5.50
2022-12-03T09:05:20.042Z,5.60
2022-12-03T09:08:14.950Z,5.60
2022-12-03T09:11:35.130Z,5.60
2022-12-03T09:14:54.376Z,5.70
2022-12-03T09:17:45.030Z,5.80
2022-12-03T09:20:33.578Z,5.70
2022-12-03T09:23:21.701Z,5.70
2022-12-03T09:26:10.043Z,5.80
2022-12-03T09:28:58.291Z,5.90
2022-12-03T09:31:48.276Z,5.90
2022-12-03T09:34:36.818Z,5.90
2022-12-03T09:37:25.226Z,6.00
2022-12-03T09:40:14.159Z,6.00
2022-12-03T09:43:02.849Z,6.00
2022-12-03T09:45:56.488Z,6.30
2022-12-03T09:48:54.765Z,6.10
2022-12-03T09:51:55.987Z,6.20
2022-12-03T09:54:47.553Z,6.30
2022-12-03T09:57:36.397Z,6.20
2022-12-03T10:00:26.319Z,6.30
2022-12-03T10:03:16.066Z,6.40
2022-12-03T10:06:06.501Z,6.40
2022-12-03T10:08:55.685Z,6.50
2022-12-03T10:11:44.216Z,6.50
2022-12-03T10:14:32.812Z,6.60
2022-12-03T10:17:21.214Z,6.60
2022-12-03T10:20:12.150Z,6.70
2022-12-03T10:23:01.816Z,6.70
2022-12-03T10:25:54.665Z,6.90
2022-12-03T10:28:50.725Z,6.90
2022-12-03T10:31:45.412Z,6.90
2022-12-03T10:34:53.582Z,6.90
2022-12-03T10:37:57.990Z,6.80
2022-12-03T10:40:51.061Z,6.90
2022-12-03T10:43:39.872Z,7.00
2022-12-03T10:46:28.314Z,7.10
2022-12-03T10:49:21.916Z,6.90
2022-12-03T10:52:26.334Z,7.00
2022-12-03T10:55:16.115Z,6.90
2022-12-03T10:58:08.121Z,6.90
2022-12-03T11:01:00.940Z,7.20
2022-12-03T11:04:01.849Z,7.10
2022-12-03T11:06:55.832Z,7.10
2022-12-03T11:09:49.124Z,6.90
2022-12-03T11:12:37.454Z,6.80
2022-12-03T11:15:42.905Z,7.00
2022-12-03T11:18:55.353Z,6.90
2022-12-03T11:21:58.510Z,6.80
2022-12-03T11:24:46.824Z,6.60
2022-12-03T11:27:36.641Z,6.70
2022-12-03T11:33:36.887Z,6.70
2022-12-03T11:36:47.821Z,6.70
2022-12-03T11:39:59.425Z,6.80
2022-12-03T11:42:48.109Z,6.90
2022-12-03T11:45:37.710Z,7.00
2022-12-03T11:48:25.988Z,6.90
2022-12-03T11:51:16.713Z,6.90
2022-12-03T11:54:05.115Z,6.90
2022-12-03T11:56:54.056Z,7.00
2022-12-03T11:59:57.198Z,7.10
2022-12-03T12:02:45.622Z,7.10
2022-12-03T12:05:34.400Z,6.90
2022-12-03T12:08:24.289Z,6.90
2022-12-03T12:11:19.505Z,6.90
2022-12-03T12:14:08.338Z,7.00
2022-12-03T12:16:58.341Z,7.00
2022-12-03T12:19:52.675Z,7.10
2022-12-03T12:22:42.717Z,7.20
2022-12-03T12:25:40.158Z,7.30
2022-12-03T12:28:28.363Z,7.30
2022-12-03T12:31:16.697Z,7.30
2022-12-03T12:40:07.905Z,7.50
2022-12-03T12:43:12.612Z,7.70
2022-12-03T12:46:46.153Z,7.70
2022-12-03T12:49:38.355Z,7.60
2022-12-03T12:52:38.533Z,7.70
2022-12-03T12:55:46.427Z,7.60
2022-12-03T12:59:02.657Z,7.50
2022-12-03T13:02:08.487Z,7.60
2022-12-03T13:05:10.975Z,7.70
2022-12-03T13:08:14.094Z,7.50
2022-12-03T13:11:06.363Z,7.60
2022-12-03T13:14:04.623Z,7.60
2022-12-03T13:17:21.680Z,7.40
2022-12-03T13:20:26.718Z,7.50
2022-12-03T13:24:14.455Z,7.40
2022-12-03T13:27:29.005Z,7.40
2022-12-03T13:30:28.899Z,7.40
2022-12-03T13:37:00.427Z,7.20
2022-12-03T13:40:19.555Z,7.20
2022-12-03T13:43:38.712Z,7.10
2022-12-03T13:46:48.072Z,7.30
2022-12-03T13:49:51.661Z,7.40
2022-12-03T13:52:49.678Z,7.40
2022-12-03T13:55:54.268Z,7.40
2022-12-03T13:58:52.309Z,7.30
2022-12-03T14:02:04.266Z,7.30
2022-12-03T14:05:15.147Z,7.10
2022-12-03T14:08:22.056Z,7.30
2022-12-03T14:11:35.392Z,7.20
2022-12-03T14:14:43.086Z,7.20
2022-12-03T14:17:50.705Z,7.20
2022-12-03T14:21:26.133Z,7.00
2022-12-03T14:27:34.075Z,6.90
2022-12-03T14:30:29.563Z,6.90
2022-12-03T14:33:23.693Z,6.70
2022-12-03T14:36:24.791Z,6.70
2022-12-03T14:39:16.820Z,6.70
2022-12-03T14:42:29.910Z,6.50
2022-12-03T14:45:29.040Z,6.60
2022-12-03T14:48:47.567Z,6.70
2022-12-03T14:52:03.699Z,6.80
2022-12-03T14:55:15.552Z,6.90
2022-12-03T14:58:11.663Z,6.70
2022-12-03T15:01:13.551Z,6.50
2022-12-03T15:04:11.607Z,6.50
2022-12-03T15:08:11.604Z,6.40
2022-12-03T15:10:48.957Z,6.50
2022-12-03T15:13:49.997Z,6.30
2022-12-03T15:16:46.465Z,6.10
2022-12-03T15:20:09.411Z,6.10
2022-12-03T15:23:18.138Z,6.30
2022-12-03T15:26:28.918Z,6.40
2022-12-03T15:32:29.049Z,6.40
2022-12-03T15:35:26.843Z,6.40
2022-12-03T15:38:40.746Z,6.20
2022-12-03T15:41:36.916Z,6.30
2022-12-03T15:44:53.214Z,6.40
2022-12-03T15:48:01.675Z,6.50
2022-12-03T15:51:12.932Z,6.60
2022-12-03T15:54:25.239Z,6.00
2022-12-03T15:57:33.481Z,6.00
2022-12-03T16:00:39.015Z,6.20
2022-12-03T16:03:43.103Z,6.20
2022-12-03T16:06:48.927Z,5.90
2022-12-03T16:10:26.133Z,5.80
2022-12-03T16:13:20.628Z,5.70
2022-12-03T16:16:35.006Z,5.80
2022-12-03T16:19:30.453Z,5.90
2022-12-03T16:22:54.752Z,5.90
2022-12-03T16:26:07.532Z,5.90
2022-12-03T16:29:09.036Z,5.60
2022-12-03T16:32:11.257Z,5.70
2022-12-03T16:35:14.827Z,5.60
2022-12-03T16:38:33.272Z,5.60
2022-12-03T16:41:53.923Z,5.60
2022-12-03T16:48:40.804Z,5.70
2022-12-03T16:54:54.762Z,5.90
2022-12-03T16:58:00.436Z,5.80
2022-12-03T17:04:21.735Z,5.50
2022-12-03T17:07:15.086Z,5.50
2022-12-03T17:10:06.246Z,5.50
2022-12-03T17:13:09.364Z,5.50
2022-12-03T17:16:12.050Z,5.70
2022-12-03T17:19:14.615Z,5.80
2022-12-03T17:22:21.929Z,6.00
2022-12-03T17:25:20.107Z,6.00
2022-12-03T17:28:24.267Z,6.10
2022-12-03T17:31:28.893Z,6.30
2022-12-03T17:34:30.385Z,6.10
2022-12-03T17:37:38.574Z,6.10
2022-12-03T17:41:12.954Z,6.10
2022-12-03T17:44:17.745Z,6.10
2022-12-03T17:47:26.759Z,6.10
2022-12-03T17:50:26.178Z,6.00
2022-12-03T17:53:31.300Z,6.10
2022-12-03T17:56:42.628Z,6.00
2022-12-03T18:00:03.495Z,6.10
2022-12-03T18:03:19.610Z,6.10
2022-12-03T18:09:45.664Z,6.10
2022-12-03T18:12:58.305Z,6.40
2022-12-03T18:16:09.318Z,6.50
2022-12-03T18:22:33.782Z,6.10
2022-12-03T18:25:27.806Z,5.60
2022-12-03T18:32:30.034Z,5.70
2022-12-03T18:35:50.238Z,5.70
2022-12-03T18:42:31.288Z,5.50
2022-12-03T18:45:47.486Z,5.50
2022-12-03T18:48:54.962Z,5.50
2022-12-03T18:52:28.179Z,5.60
2022-12-03T18:55:58.376Z,5.60
2022-12-03T19:02:45.962Z,5.70
2022-12-03T19:05:43.585Z,5.80
2022-12-03T19:09:06.206Z,5.80
2022-12-03T19:12:19.413Z,5.90
2022-12-03T19:21:33.855Z,5.80
2022-12-03T19:24:55.354Z,5.60
2022-12-03T19:35:30.938Z,5.40
2022-12-03T19:38:40.267Z,5.30
2022-12-03T19:41:47.006Z,5.30
2022-12-03T19:44:47.477Z,5.40
2022-12-03T19:47:49.311Z,5.20
2022-12-03T19:51:02.889Z,5.30
2022-12-03T19:54:20.696Z,5.10
2022-12-03T20:00:47.565Z,5.10
2022-12-03T20:03:51.230Z,5.00
2022-12-03T20:06:52.440Z,5.10
2022-12-03T20:09:54.569Z,5.20
2022-12-03T20:13:26.152Z,5.20
2022-12-03T20:16:26.983Z,5.40
2022-12-03T20:19:29.623Z,5.20
2022-12-03T20:22:27.931Z,5.20
2022-12-03T20:25:35.691Z,5.00
2022-12-03T20:28:39.314Z,5.20
2022-12-03T20:31:46.523Z,5.30
2022-12-03T20:34:39.717Z,5.20
2022-12-03T20:37:49.843Z,5.20
2022-12-03T20:40:50.878Z,5.10
2022-12-03T20:44:36.103Z,5.10
2022-12-03T20:47:33.686Z,5.30
2022-12-03T20:50:25.025Z,5.30
2022-12-03T20:53:44.814Z,5.40
2022-12-03T20:56:51.343Z,5.10
2022-12-03T20:59:49.759Z,5.20
2022-12-03T21:02:45.819Z,5.20
2022-12-03T21:05:53.280Z,5.20
2022-12-03T21:08:52.043Z,5.30
2022-12-03T21:12:01.077Z,5.50
2022-12-03T21:15:36.035Z,5.60
2022-12-03T21:19:05.547Z,5.40
2022-12-03T21:22:10.343Z,5.40
2022-12-03T21:25:04.550Z,5.20
2022-12-03T21:28:08.730Z,5.20
2022-12-03T21:31:26.219Z,5.20
2022-12-03T21:34:36.403Z,5.10
2022-12-03T21:37:43.892Z,5.20
2022-12-03T21:40:41.528Z,5.50
2022-12-03T21:43:55.393Z,5.40
2022-12-03T21:47:09.670Z,5.50
2022-12-03T21:50:28.347Z,5.60
2022-12-03T21:53:19.175Z,5.20
2022-12-03T21:56:31.119Z,4.90
2022-12-03T21:59:39.130Z,4.90
2022-12-03T22:02:37.925Z,4.80
2022-12-03T22:05:41.399Z,4.90
2022-12-03T22:08:41.483Z,5.00
2022-12-03T22:11:45.240Z,5.00
2022-12-03T22:14:53.768Z,4.90
2022-12-03T22:17:51.879Z,5.00
2022-12-03T22:20:48.167Z,5.00
2022-12-03T22:27:00.409Z,5.20
2022-12-03T22:30:07.955Z,4.90
2022-12-03T22:33:52.220Z,5.00
2022-12-03T22:36:54.109Z,5.00
2022-12-03T22:39:57.966Z,5.20
2022-12-03T22:42:51.880Z,5.30
2022-12-03T22:45:52.449Z,5.10
2022-12-03T22:49:07.839Z,5.10
2022-12-03T22:52:08.590Z,5.10
2022-12-03T22:55:08.509Z,5.20
2022-12-03T22:58:04.296Z,5.30
2022-12-03T23:01:10.242Z,5.30
2022-12-03T23:04:34.053Z,5.40
2022-12-03T23:07:47.386Z,5.40
2022-12-03T23:10:58.529Z,5.40
2022-12-03T23:13:54.071Z,5.60
2022-12-03T23:16:48.391Z,5.60
2022-12-03T23:19:51.169Z,5.60
2022-12-03T23:22:54.093Z,5.60
2022-12-03T23:26:07.824Z,5.50
2022-12-03T23:29:29.134Z,5.40
2022-12-03T23:32:32.484Z,5.40
2022-12-03T23:35:29.844Z,5.30
2022-12-03T23:38:29.032Z,5.30
2022-12-03T23:41:27.375Z,5.30
2022-12-03T23:44:31.486Z,5.10
2022-12-03T23:47:27.031Z,5.20
2022-12-03T23:50:34.348Z,5.20
2022-12-03T23:53:47.019Z,5.00
2022-12-03T23:56:47.285Z,5.10
2022-12-03T23:59:57.767Z,5.20
